Time;durP1;ratioP1;P1;durP2;ratioP2;P2;SDS_P1;SDS_P2;PMS_P1;PMS_P2;Temp;Humidity;BMP_temperature;BMP_pressure;BME280_temperature;BME280_humidity;BME280_pressure;Samples;Min_cycle;Max_cycle;Signal;HPM_P1;HPM_P2
2024/05/06 00:01:37;;;;;;;13.70;12.25;;;;;;;-145.37;100.00;61290.75;6475445;22;20456;-83
2024/05/06 00:04:04;;;;;;;16.40;14.25;;;;;;;-145.37;100.00;61290.75;6431287;22;20323;-82
2024/05/06 00:06:30;;;;;;;15.25;12.82;;;;;;;-145.37;100.00;61290.75;6475389;22;19998;-83
2024/05/06 00:08:57;;;;;;;17.83;13.52;;;;;;;-145.37;100.00;61290.75;6430121;22;20001;-83
2024/05/06 00:11:24;;;;;;;15.63;12.88;;;;;;;-145.37;100.00;61290.75;6476066;22;19990;-83
2024/05/06 00:13:51;;;;;;;15.13;13.07;;;;;;;-145.37;100.00;61290.75;6475046;22;20018;-83
2024/05/06 00:16:17;;;;;;;16.55;12.88;;;;;;;-145.37;100.00;61290.75;6475016;22;20448;-83
2024/05/06 00:18:45;;;;;;;14.65;12.52;;;;;;;-145.37;100.00;61290.75;6475427;22;19998;-83
2024/05/06 00:21:12;;;;;;;16.23;12.60;;;;;;;-145.37;100.00;61290.75;6475023;22;19994;-83
2024/05/06 00:23:38;;;;;;;15.88;13.48;;;;;;;-145.37;100.00;61290.75;6431362;22;20032;-83
2024/05/06 00:26:05;;;;;;;15.18;13.02;;;;;;;-145.37;100.00;61290.75;6475823;22;20009;-83
2024/05/06 00:28:31;;;;;;;14.70;13.20;;;;;;;-145.37;100.00;61290.75;6475196;22;19993;-83
2024/05/06 00:30:58;;;;;;;14.02;12.52;;;;;;;-145.37;100.00;61290.75;6430816;22;20432;-83
2024/05/06 00:33:25;;;;;;;14.70;13.13;;;;;;;-145.37;100.00;61290.75;6430750;22;20408;-82
2024/05/06 00:35:53;;;;;;;17.85;13.10;;;;;;;-145.37;100.00;61290.75;6474842;22;20425;-83
2024/05/06 00:38:20;;;;;;;15.25;13.10;;;;;;;-145.37;100.00;61290.75;6475052;22;20451;-83
2024/05/06 00:40:50;;;;;;;14.38;12.45;;;;;;;-145.37;100.00;61290.75;6431239;22;20068;-83
2024/05/06 00:43:16;;;;;;;17.38;12.48;;;;;;;-145.37;100.00;61290.75;6478056;22;20026;-83
2024/05/06 00:45:43;;;;;;;15.43;13.60;;;;;;;-145.37;100.00;61290.75;6477906;22;19998;-83
2024/05/06 00:48:10;;;;;;;17.60;13.93;;;;;;;-145.37;100.00;61290.75;6475067;22;20001;-83
2024/05/06 00:50:37;;;;;;;20.40;13.90;;;;;;;-145.37;100.00;61290.75;6431069;22;20005;-82
2024/05/06 00:53:08;;;;;;;15.20;13.60;;;;;;;-145.37;100.00;61290.75;6474362;22;20379;-81
2024/05/06 00:55:36;;;;;;;14.48;11.52;;;;;;;-145.37;100.00;61290.75;6475429;22;20002;-83
2024/05/06 00:58:03;;;;;;;14.65;12.77;;;;;;;-145.37;100.00;61290.75;6430717;22;19990;-83
2024/05/06 01:00:31;;;;;;;15.80;12.75;;;;;;;-145.37;100.00;61290.75;6430889;22;20472;-83
2024/05/06 01:02:59;;;;;;;16.75;12.23;;;;;;;-145.37;100.00;61290.75;6474813;22;20000;-83
2024/05/06 01:05:26;;;;;;;16.45;14.40;;;;;;;-145.37;100.00;61290.75;6475851;22;20009;-82
2024/05/06 01:07:53;;;;;;;14.80;12.95;;;;;;;-145.37;100.00;61290.75;6475576;22;19994;-83
2024/05/06 01:10:20;;;;;;;15.57;12.75;;;;;;;-145.37;100.00;61290.75;6474357;22;20009;-84
2024/05/06 01:12:47;;;;;;;16.25;13.40;;;;;;;-145.37;100.00;61290.75;6474541;22;20002;-83
2024/05/06 01:15:14;;;;;;;17.67;13.25;;;;;;;-145.37;100.00;61290.75;6475355;22;20005;-83
2024/05/06 01:17:42;;;;;;;14.57;12.88;;;;;;;-145.37;100.00;61290.75;6431380;22;20001;-83
2024/05/06 01:20:08;;;;;;;17.65;13.73;;;;;;;-145.37;100.00;61290.75;6475465;22;20026;-83
2024/05/06 01:22:49;;;;;;;15.93;14.05;;;;;;;-145.37;100.00;61290.75;6431006;22;20136;-82
2024/05/06 01:25:16;;;;;;;16.40;14.32;;;;;;;-145.37;100.00;61290.75;6475123;22;19994;-83
2024/05/06 01:27:43;;;;;;;18.13;14.73;;;;;;;-145.37;100.00;61290.75;6475145;22;20005;-83
2024/05/06 01:30:10;;;;;;;15.15;13.55;;;;;;;-145.37;100.00;61290.75;6474247;22;20001;-82
2024/05/06 01:32:37;;;;;;;17.33;14.77;;;;;;;-145.37;100.00;61290.75;6475798;22;20065;-83
2024/05/06 01:35:04;;;;;;;15.98;13.77;;;;;;;-145.37;100.00;61290.75;6430940;22;19990;-82
2024/05/06 01:37:30;;;;;;;17.80;14.65;;;;;;;-145.37;100.00;61290.75;6431152;22;19998;-82
2024/05/06 01:39:57;;;;;;;18.17;15.32;;;;;;;-145.37;100.00;61290.75;6431120;22;19997;-84
2024/05/06 01:42:24;;;;;;;18.17;15.63;;;;;;;-145.37;100.00;61290.75;6475389;22;19990;-82
2024/05/06 01:44:52;;;;;;;20.45;15.90;;;;;;;-145.37;100.00;61290.75;6474312;22;20068;-83
2024/05/06 01:47:18;;;;;;;17.35;15.20;;;;;;;-145.37;100.00;61290.75;6429391;22;19998;-85
2024/05/06 01:49:47;;;;;;;17.65;14.65;;;;;;;-145.37;100.00;61290.75;6431494;22;20420;-84
2024/05/06 01:52:14;;;;;;;17.33;15.52;;;;;;;-145.37;100.00;61290.75;6474896;22;19989;-84
2024/05/06 01:54:40;;;;;;;18.67;16.63;;;;;;;-145.37;100.00;61290.75;6475307;22;19993;-85
2024/05/06 01:57:07;;;;;;;17.17;15.32;;;;;;;-145.37;100.00;61290.75;6430499;22;19994;-84
2024/05/06 01:59:34;;;;;;;20.30;16.60;;;;;;;-145.37;100.00;61290.75;6476076;22;19998;-84
2024/05/06 02:02:00;;;;;;;18.40;16.27;;;;;;;-145.37;100.00;61290.75;6430564;22;20452;-83
2024/05/06 02:04:29;;;;;;;20.85;16.50;;;;;;;-145.37;100.00;61290.75;6431741;22;20064;-84
2024/05/06 02:06:56;;;;;;;18.63;16.70;;;;;;;-145.37;100.00;61290.75;6431599;22;19993;-83
2024/05/06 02:09:23;;;;;;;18.30;15.80;;;;;;;-145.37;100.00;61290.75;6429866;22;20005;-83
2024/05/06 02:11:49;;;;;;;19.55;16.92;;;;;;;-145.37;100.00;61290.75;6431093;22;20367;-83
2024/05/06 02:14:16;;;;;;;19.70;16.70;;;;;;;-145.37;100.00;61290.75;6474932;22;20006;-84
2024/05/06 02:16:42;;;;;;;20.27;18.08;;;;;;;-145.37;100.00;61290.75;6430933;22;19994;-83
2024/05/06 02:19:09;;;;;;;21.73;17.77;;;;;;;-145.37;100.00;61290.75;6474608;22;20014;-84
2024/05/06 02:21:36;;;;;;;19.13;17.02;;;;;;;-145.37;100.00;61290.75;6430023;22;19990;-84
2024/05/06 02:24:03;;;;;;;20.45;17.98;;;;;;;-145.37;100.00;61290.75;6474044;22;19994;-83
2024/05/06 02:26:30;;;;;;;19.25;16.90;;;;;;;-145.37;100.00;61290.75;6474881;22;20072;-83
2024/05/06 02:28:56;;;;;;;20.27;17.67;;;;;;;-145.37;100.00;61290.75;6475134;22;19989;-83
2024/05/06 02:31:23;;;;;;;21.40;18.90;;;;;;;-145.37;100.00;61290.75;6473853;22;19998;-83
2024/05/06 02:33:54;;;;;;;23.05;19.73;;;;;;;-145.37;100.00;61290.75;6474035;22;19994;-83
2024/05/06 02:36:21;;;;;;;21.17;18.83;;;;;;;-145.37;100.00;61290.75;6429755;22;20002;-84
2024/05/06 02:38:47;;;;;;;20.58;18.33;;;;;;;-145.37;100.00;61290.75;6476338;22;20006;-83
2024/05/06 02:41:17;;;;;;;21.23;18.92;;;;;;;-145.37;100.00;61290.75;6432614;22;20086;-84
2024/05/06 02:43:44;;;;;;;21.83;19.55;;;;;;;-145.37;100.00;61290.75;6432601;22;20297;-83
2024/05/06 02:46:11;;;;;;;23.52;19.02;;;;;;;-145.37;100.00;61290.75;6432817;22;20002;-83
2024/05/06 02:48:40;;;;;;;22.50;20.00;;;;;;;-145.37;100.00;61290.75;6476856;22;20005;-83
2024/05/06 02:51:08;;;;;;;23.95;21.30;;;;;;;-145.37;100.00;61290.75;6432712;22;20505;-83
2024/05/06 02:53:37;;;;;;;22.65;20.17;;;;;;;-145.37;100.00;61290.75;6476020;22;20356;-83
2024/05/06 02:56:04;;;;;;;22.35;19.92;;;;;;;-145.37;100.00;61290.75;6432057;22;20068;-83
2024/05/06 02:58:31;;;;;;;22.95;20.13;;;;;;;-145.37;100.00;61290.75;6476930;22;20019;-83
2024/05/06 03:00:57;;;;;;;25.50;21.10;;;;;;;-145.37;100.00;61290.75;6434273;22;20006;-84
2024/05/06 03:03:24;;;;;;;21.98;19.73;;;;;;;-145.37;100.00;61290.75;6481079;22;20375;-83
2024/05/06 03:05:51;;;;;;;23.10;20.60;;;;;;;-145.37;100.00;61290.75;6476356;22;19993;-84
2024/05/06 03:08:18;;;;;;;23.63;20.73;;;;;;;-145.37;100.00;61290.75;6476067;22;19997;-84
2024/05/06 03:10:44;;;;;;;23.63;21.20;;;;;;;-145.37;100.00;61290.75;6476909;22;20436;-83
2024/05/06 03:13:11;;;;;;;25.63;22.17;;;;;;;-145.37;100.00;61290.75;6476413;22;19997;-84
2024/05/06 03:15:38;;;;;;;28.05;22.83;;;;;;;-145.37;100.00;61290.75;6475322;22;19994;-84
2024/05/06 03:18:05;;;;;;;25.48;21.77;;;;;;;-145.37;100.00;61290.75;6432001;22;20005;-84
2024/05/06 03:20:32;;;;;;;27.02;22.23;;;;;;;-145.37;100.00;61290.75;6432066;22;20017;-84
2024/05/06 03:22:59;;;;;;;23.90;21.38;;;;;;;-145.37;100.00;61290.75;6476629;22;19989;-83
2024/05/06 03:25:26;;;;;;;26.90;22.15;;;;;;;-145.37;100.00;61290.75;6476419;22;19994;-83
2024/05/06 03:27:53;;;;;;;26.77;23.25;;;;;;;-145.37;100.00;61290.75;6433590;22;20065;-83
2024/05/06 03:30:20;;;;;;;23.67;21.10;;;;;;;-145.37;100.00;61290.75;6479712;22;19994;-84
2024/05/06 03:32:46;;;;;;;26.00;22.88;;;;;;;-145.37;100.00;61290.75;6444777;22;20001;-83
2024/05/06 03:35:13;;;;;;;25.50;22.75;;;;;;;-145.37;100.00;61290.75;6452593;22;20009;-84
2024/05/06 03:37:40;;;;;;;27.00;23.85;;;;;;;-145.37;100.00;61290.75;6445587;22;19990;-83
2024/05/06 03:40:07;;;;;;;27.35;22.98;;;;;;;-145.37;100.00;61290.75;6477262;22;19997;-83
2024/05/06 03:42:34;;;;;;;25.55;22.88;;;;;;;-145.37;100.00;61290.75;6476547;22;20001;-84
2024/05/06 03:45:00;;;;;;;26.95;24.02;;;;;;;-145.37;100.00;61290.75;6433057;22;20206;-84
2024/05/06 03:47:27;;;;;;;27.70;23.33;;;;;;;-145.37;100.00;61290.75;6432558;22;19994;-83
2024/05/06 03:49:54;;;;;;;26.33;23.42;;;;;;;-145.37;100.00;61290.75;6474948;22;20428;-83
2024/05/06 03:52:21;;;;;;;26.35;23.25;;;;;;;-145.37;100.00;61290.75;6475729;22;20297;-84
2024/05/06 03:54:48;;;;;;;26.50;23.60;;;;;;;-145.37;100.00;61290.75;6431840;22;20005;-83
2024/05/06 03:57:15;;;;;;;30.38;24.90;;;;;;;-145.37;100.00;61290.75;6475307;22;19993;-84
2024/05/06 03:59:44;;;;;;;27.33;24.45;;;;;;;-145.37;100.00;61290.75;6474970;22;19996;-84
2024/05/06 04:02:11;;;;;;;26.02;22.48;;;;;;;-145.37;100.00;61290.75;6473369;22;19990;-83
2024/05/06 04:04:37;;;;;;;26.55;23.70;;;;;;;-145.37;100.00;61290.75;6471947;22;19994;-83
2024/05/06 04:07:06;;;;;;;25.33;22.67;;;;;;;-145.37;100.00;61290.75;6470855;22;20022;-84
2024/05/06 04:09:37;;;;;;;27.23;23.88;;;;;;;-145.37;100.00;61290.75;6427645;22;20002;-83
2024/05/06 04:12:04;;;;;;;26.35;22.02;;;;;;;-145.37;100.00;61290.75;6470756;22;19998;-83
2024/05/06 04:14:31;;;;;;;23.63;21.00;;;;;;;-145.37;100.00;61290.75;6471990;22;20296;-83
2024/05/06 04:16:58;;;;;;;23.67;21.02;;;;;;;-145.37;100.00;61290.75;6470950;22;20022;-83
2024/05/06 04:19:24;;;;;;;23.45;20.67;;;;;;;-145.37;100.00;61290.75;6469798;22;20060;-83
2024/05/06 04:21:51;;;;;;;29.08;23.75;;;;;;;-145.37;100.00;61290.75;6469884;22;20004;-83
2024/05/06 04:27:07;;;;;;;25.30;22.60;;;;;;;-145.37;100.00;61290.75;6467905;22;20416;-82
2024/05/06 04:29:34;;;;;;;33.33;22.25;;;;;;;-145.37;100.00;61290.75;6423006;22;19990;-82
2024/05/06 04:32:01;;;;;;;28.60;24.30;;;;;;;-145.37;100.00;61290.75;6422488;22;19994;-82
2024/05/06 04:34:28;;;;;;;25.23;22.52;;;;;;;-145.37;100.00;61290.75;6465520;22;20022;-83
2024/05/06 04:36:54;;;;;;;27.10;21.95;;;;;;;-145.37;100.00;61290.75;6422729;22;20404;-82
2024/05/06 04:39:22;;;;;;;29.30;22.95;;;;;;;-145.37;100.00;61290.75;6422998;22;20087;-83
2024/05/06 04:41:49;;;;;;;25.67;22.85;;;;;;;-145.37;100.00;61290.75;6422863;22;20069;-83
2024/05/06 04:44:16;;;;;;;28.23;22.25;;;;;;;-145.37;100.00;61290.75;6467262;22;20046;-82
2024/05/06 04:46:43;;;;;;;28.52;23.00;;;;;;;-145.37;100.00;61290.75;6466522;22;19993;-82
2024/05/06 04:49:09;;;;;;;29.60;23.50;;;;;;;-145.37;100.00;61290.75;6421472;22;20400;-82
2024/05/06 04:51:36;;;;;;;26.65;22.48;;;;;;;-145.37;100.00;61290.75;6466438;22;20111;-83
2024/05/06 04:54:03;;;;;;;33.42;24.05;;;;;;;-145.37;100.00;61290.75;6422291;22;19994;-83
2024/05/06 04:56:30;;;;;;;26.85;23.27;;;;;;;-145.37;100.00;61290.75;6464591;22;19998;-83
2024/05/06 04:58:57;;;;;;;27.30;22.45;;;;;;;-145.37;100.00;61290.75;6421642;22;20028;-82
2024/05/06 05:01:24;;;;;;;26.85;21.58;;;;;;;-145.37;100.00;61290.75;6421163;22;19994;-82
2024/05/06 05:03:50;;;;;;;28.15;22.42;;;;;;;-145.37;100.00;61290.75;6465764;22;19994;-83
2024/05/06 05:06:19;;;;;;;32.58;23.02;;;;;;;-145.37;100.00;61290.75;6422267;22;20002;-83
2024/05/06 05:08:45;;;;;;;28.98;22.77;;;;;;;-145.37;100.00;61290.75;6422219;22;19994;-82
2024/05/06 05:11:13;;;;;;;28.98;21.23;;;;;;;-145.37;100.00;61290.75;6466070;22;20371;-83
2024/05/06 05:13:41;;;;;;;30.25;22.17;;;;;;;-145.37;100.00;61290.75;6465540;22;20072;-83
2024/05/06 05:16:08;;;;;;;25.95;22.17;;;;;;;-145.37;100.00;61290.75;6422969;22;19993;-83
2024/05/06 05:18:34;;;;;;;27.00;22.15;;;;;;;-145.37;100.00;61290.75;6382483;22;20001;-82
2024/05/06 05:21:01;;;;;;;24.50;20.65;;;;;;;-145.37;100.00;61290.75;6423977;22;20149;-82
2024/05/06 05:23:28;;;;;;;26.08;21.80;;;;;;;-145.37;100.00;61290.75;6467345;22;20041;-82
2024/05/06 05:25:54;;;;;;;26.52;22.55;;;;;;;-145.37;100.00;61290.75;6421308;22;20033;-82
2024/05/06 05:28:26;;;;;;;28.10;21.92;;;;;;;-145.37;100.00;61290.75;6423023;22;20026;-83
2024/05/06 05:30:53;;;;;;;27.58;21.50;;;;;;;-145.37;100.00;61290.75;6421532;22;19997;-83
2024/05/06 05:33:24;;;;;;;26.08;21.75;;;;;;;-145.37;100.00;61290.75;6465312;22;19994;-83
2024/05/06 05:35:51;;;;;;;28.95;22.25;;;;;;;-145.37;100.00;61290.75;6420582;22;20062;-83
2024/05/06 05:38:18;;;;;;;28.08;21.85;;;;;;;-145.37;100.00;61290.75;6464714;22;19994;-83
2024/05/06 05:40:47;;;;;;;26.23;22.38;;;;;;;-145.37;100.00;61290.75;6465164;22;19994;-83
2024/05/06 05:43:14;;;;;;;25.60;20.88;;;;;;;-145.37;100.00;61290.75;6465439;22;20013;-82
2024/05/06 05:45:41;;;;;;;26.88;21.13;;;;;;;-145.37;100.00;61290.75;6421239;22;20429;-82
2024/05/06 05:48:11;;;;;;;26.77;21.08;;;;;;;-145.37;100.00;61290.75;6421928;22;19994;-82
2024/05/06 05:50:39;;;;;;;27.50;21.98;;;;;;;-145.37;100.00;61290.75;6464896;22;19994;-83
2024/05/06 05:53:06;;;;;;;24.75;20.80;;;;;;;-145.37;100.00;61290.75;6466248;22;20400;-82
2024/05/06 05:55:33;;;;;;;27.23;22.15;;;;;;;-145.37;100.00;61290.75;6466151;22;20071;-82
2024/05/06 05:58:00;;;;;;;27.63;20.58;;;;;;;-145.37;100.00;61290.75;6465576;22;19990;-82
2024/05/06 06:00:27;;;;;;;30.17;23.10;;;;;;;-145.37;100.00;61290.75;6466078;22;20006;-83
2024/05/06 06:02:53;;;;;;;28.25;22.42;;;;;;;-145.37;100.00;61290.75;6464853;22;20042;-81
2024/05/06 06:05:20;;;;;;;29.13;21.90;;;;;;;-145.37;100.00;61290.75;6466018;22;20072;-83
2024/05/06 06:07:49;;;;;;;27.38;21.33;;;;;;;-145.37;100.00;61290.75;6465280;22;20041;-83
2024/05/06 06:10:16;;;;;;;28.27;21.75;;;;;;;-145.37;100.00;61290.75;6465934;22;20005;-83
2024/05/06 06:12:43;;;;;;;31.48;22.25;;;;;;;-145.37;100.00;61290.75;6467570;22;20097;-83
2024/05/06 06:15:09;;;;;;;30.88;21.77;;;;;;;-145.37;100.00;61290.75;6468412;22;19994;-83
2024/05/06 06:17:39;;;;;;;29.65;22.77;;;;;;;-145.37;100.00;61290.75;6468488;22;19994;-83
2024/05/06 06:20:07;;;;;;;26.80;21.25;;;;;;;-145.37;100.00;61290.75;6424997;22;19998;-84
2024/05/06 06:22:33;;;;;;;30.27;22.52;;;;;;;-145.37;100.00;61290.75;6468238;22;19998;-83
2024/05/06 06:25:01;;;;;;;25.15;20.38;;;;;;;-145.37;100.00;61290.75;6468734;22;20009;-82
2024/05/06 06:27:28;;;;;;;29.58;22.17;;;;;;;-145.37;100.00;61290.75;6468324;22;19989;-82
2024/05/06 06:29:55;;;;;;;27.52;21.42;;;;;;;-145.37;100.00;61290.75;6424248;22;20025;-82
2024/05/06 06:32:22;;;;;;;28.75;21.77;;;;;;;-145.37;100.00;61290.75;6467222;22;20411;-82
2024/05/06 06:34:49;;;;;;;30.85;22.45;;;;;;;-145.37;100.00;61290.75;6423622;22;19990;-82
2024/05/06 06:37:16;;;;;;;27.25;21.40;;;;;;;-145.37;100.00;61290.75;6468345;22;20396;-83
2024/05/06 06:39:43;;;;;;;29.50;21.77;;;;;;;-145.37;100.00;61290.75;6467214;22;20008;-83
2024/05/06 06:42:09;;;;;;;32.20;21.73;;;;;;;-145.37;100.00;61290.75;6467935;22;20527;-84
2024/05/06 06:44:36;;;;;;;26.88;20.33;;;;;;;-145.37;100.00;61290.75;6424600;22;20005;-84
2024/05/06 06:47:03;;;;;;;27.70;22.75;;;;;;;-145.37;100.00;61290.75;6468199;22;19990;-83
2024/05/06 06:49:29;;;;;;;26.67;21.42;;;;;;;-145.37;100.00;61290.75;6468004;22;20002;-83
2024/05/06 06:51:56;;;;;;;29.80;20.42;;;;;;;-145.37;100.00;61290.75;6467477;22;20113;-82
2024/05/06 06:54:23;;;;;;;25.05;20.58;;;;;;;-145.37;100.00;61290.75;6468251;22;20006;-83
2024/05/06 06:56:49;;;;;;;26.02;20.88;;;;;;;-145.37;100.00;61290.75;6468858;22;19994;-82
2024/05/06 06:59:16;;;;;;;27.08;20.95;;;;;;;-145.37;100.00;61290.75;6468133;22;20586;-82
2024/05/06 07:01:43;;;;;;;26.20;19.25;;;;;;;-145.37;100.00;61290.75;6468048;22;20005;-82
2024/05/06 07:04:10;;;;;;;26.15;19.33;;;;;;;-145.37;100.00;61290.75;6424154;22;20142;-82
2024/05/06 07:06:40;;;;;;;24.95;18.95;;;;;;;-145.37;100.00;61290.75;6467505;22;20431;-84
2024/05/06 07:09:06;;;;;;;29.42;20.08;;;;;;;-145.37;100.00;61290.75;6424150;22;20417;-83
2024/05/06 07:11:33;;;;;;;25.08;20.10;;;;;;;-145.37;100.00;61290.75;6423945;22;19997;-83
2024/05/06 07:14:00;;;;;;;25.98;19.30;;;;;;;-145.37;100.00;61290.75;6467914;22;20017;-82
2024/05/06 07:16:26;;;;;;;24.70;19.83;;;;;;;-145.37;100.00;61290.75;6468848;22;20329;-83
2024/05/06 07:18:56;;;;;;;27.27;20.38;;;;;;;-145.37;100.00;61290.75;6425909;22;20005;-83
2024/05/06 07:21:23;;;;;;;24.85;18.45;;;;;;;-145.37;100.00;61290.75;6423806;22;20458;-82
2024/05/06 07:23:50;;;;;;;27.45;19.13;;;;;;;-145.37;100.00;61290.75;6467951;22;20069;-83
2024/05/06 07:26:16;;;;;;;25.90;19.20;;;;;;;-145.37;100.00;61290.75;6468709;22;19994;-82
2024/05/06 07:28:43;;;;;;;26.48;19.00;;;;;;;-145.37;100.00;61290.75;6467657;22;19998;-83
2024/05/06 07:31:10;;;;;;;24.98;18.63;;;;;;;-145.37;100.00;61290.75;6468072;22;20001;-82
2024/05/06 07:33:36;;;;;;;22.83;18.38;;;;;;;-145.37;100.00;61290.75;6467956;22;20005;-81
2024/05/06 07:36:06;;;;;;;22.17;18.23;;;;;;;-145.37;100.00;61290.75;6423682;22;19997;-82
2024/05/06 07:38:32;;;;;;;24.83;18.90;;;;;;;-145.37;100.00;61290.75;6422970;22;20083;-82
2024/05/06 07:41:01;;;;;;;24.38;18.70;;;;;;;-145.37;100.00;61290.75;6470778;22;20163;-82
2024/05/06 07:43:28;;;;;;;25.35;18.60;;;;;;;-145.37;100.00;61290.75;6469540;22;19989;-81
2024/05/06 07:45:57;;;;;;;22.30;17.38;;;;;;;-145.37;100.00;61290.75;6473320;22;20393;-82
2024/05/06 07:48:28;;;;;;;22.95;17.08;;;;;;;-145.37;100.00;61290.75;6473133;22;20110;-82
2024/05/06 07:50:55;;;;;;;24.10;18.10;;;;;;;-145.37;100.00;61290.75;6471045;22;20048;-82
2024/05/06 07:53:22;;;;;;;21.60;17.15;;;;;;;-145.37;100.00;61290.75;6429076;22;19993;-83
2024/05/06 07:55:50;;;;;;;18.33;14.85;;;;;;;-145.37;100.00;61290.75;6471456;22;20013;-82
2024/05/06 07:58:18;;;;;;;20.30;16.27;;;;;;;-145.37;100.00;61290.75;6429381;22;20001;-83
2024/05/06 08:00:44;;;;;;;20.27;14.65;;;;;;;-145.37;100.00;61290.75;6472916;22;19997;-84
2024/05/06 08:03:11;;;;;;;19.95;15.75;;;;;;;-145.37;100.00;61290.75;6471747;22;20069;-83
2024/05/06 08:05:47;;;;;;;18.70;15.50;;;;;;;-145.37;100.00;61290.75;6470925;22;20026;-80
2024/05/06 08:08:14;;;;;;;19.13;14.73;;;;;;;-145.37;100.00;61290.75;6472836;22;19989;-85
2024/05/06 08:10:40;;;;;;;19.17;15.52;;;;;;;-145.37;100.00;61290.75;6473320;22;20041;-85
2024/05/06 08:13:08;;;;;;;19.65;15.95;;;;;;;-145.37;100.00;61290.75;6428793;22;19990;-84
2024/05/06 08:15:36;;;;;;;18.40;15.20;;;;;;;-145.37;100.00;61290.75;6427919;22;19990;-85
2024/05/06 08:18:03;;;;;;;19.90;15.85;;;;;;;-145.37;100.00;61290.75;6427102;22;20073;-86
2024/05/06 08:20:31;;;;;;;19.15;15.82;;;;;;;-145.37;100.00;61290.75;6471453;22;19994;-86
2024/05/06 08:22:58;;;;;;;20.13;16.42;;;;;;;-145.37;100.00;61290.75;6471560;22;20002;-84
2024/05/06 08:25:30;;;;;;;19.10;14.10;;;;;;;-145.37;100.00;61290.75;6429253;22;20323;-84
2024/05/06 08:27:57;;;;;;;19.15;15.00;;;;;;;-145.37;100.00;61290.75;6469551;22;20008;-85
2024/05/06 08:30:24;;;;;;;18.27;14.55;;;;;;;-145.37;100.00;61290.75;6427050;22;20008;-86
2024/05/06 08:33:06;;;;;;;18.10;14.45;;;;;;;-145.37;100.00;61290.75;6469205;22;19994;-83
2024/05/06 08:35:35;;;;;;;20.70;14.45;;;;;;;-145.37;100.00;61290.75;6475636;22;20006;-84
2024/05/06 08:38:04;;;;;;;17.80;13.40;;;;;;;-145.37;100.00;61290.75;6427481;22;20001;-84
2024/05/06 08:40:31;;;;;;;17.98;14.70;;;;;;;-145.37;100.00;61290.75;6425634;22;19990;-86
2024/05/06 08:43:08;;;;;;;17.73;14.48;;;;;;;-145.37;100.00;61290.75;6434969;22;20022;-86
2024/05/06 08:45:51;;;;;;;17.70;14.27;;;;;;;-145.37;100.00;61290.75;6471718;22;20005;-85
2024/05/06 08:48:24;;;;;;;16.48;14.10;;;;;;;-145.37;100.00;61290.75;6476143;22;20076;-87
2024/05/06 08:50:55;;;;;;;17.70;14.00;;;;;;;-145.37;100.00;61290.75;6473443;22;19994;-83
2024/05/06 08:53:22;;;;;;;17.00;13.45;;;;;;;-145.37;100.00;61290.75;6429398;22;19990;-82
2024/05/06 08:55:50;;;;;;;18.23;14.45;;;;;;;-145.37;100.00;61290.75;6471693;22;19994;-83
2024/05/06 08:58:21;;;;;;;19.42;13.40;;;;;;;-145.37;100.00;61290.75;6429473;22;20005;-84
2024/05/06 09:00:52;;;;;;;17.52;13.80;;;;;;;-145.37;100.00;61290.75;6471697;22;19998;-82
2024/05/06 09:03:27;;;;;;;17.50;12.55;;;;;;;-145.37;100.00;61290.75;6472045;22;19998;-82
2024/05/06 09:05:55;;;;;;;18.70;13.30;;;;;;;-145.37;100.00;61290.75;6426880;22;20001;-82
2024/05/06 09:08:23;;;;;;;15.07;12.48;;;;;;;-145.37;100.00;61290.75;6470075;22;20029;-84
2024/05/06 09:10:51;;;;;;;17.88;13.20;;;;;;;-145.37;100.00;61290.75;6470932;22;20073;-81
2024/05/06 09:13:22;;;;;;;14.05;11.82;;;;;;;-145.37;100.00;61290.75;6471271;22;19994;-81
2024/05/06 09:15:59;;;;;;;15.07;11.68;;;;;;;-145.37;100.00;61290.75;6425096;22;19993;-83
2024/05/06 09:18:28;;;;;;;16.27;12.65;;;;;;;-145.37;100.00;61290.75;6470160;22;20058;-83
2024/05/06 09:21:08;;;;;;;14.23;11.43;;;;;;;-145.37;100.00;61290.75;6470336;22;20377;-82
2024/05/06 09:23:42;;;;;;;12.57;10.57;;;;;;;-145.37;100.00;61290.75;6474425;22;20459;-83
2024/05/06 09:26:09;;;;;;;13.88;10.95;;;;;;;-145.37;100.00;61290.75;6433500;22;20006;-84
2024/05/06 09:28:38;;;;;;;10.52;8.95;;;;;;;-145.37;100.00;61290.75;6472699;22;20033;-86
2024/05/06 09:31:09;;;;;;;13.18;10.10;;;;;;;-145.37;100.00;61290.75;6432725;22;20053;-92
